Time;durP1;ratioP1;P1;durP2;ratioP2;P2;SDS_P1;SDS_P2;PMS_P1;PMS_P2;Temp;Humidity;BMP_temperature;BMP_pressure;BME280_temperature;BME280_humidity;BME280_pressure;Samples;Min_cycle;Max_cycle;Signal;HPM_P1;HPM_P2
2023/05/15 00:00:05;;;;;;;6.63;2.95;;;;;;;;;;5008762;28;20037;-66
2023/05/15 00:02:32;;;;;;;7.78;3.08;;;;;;;;;;5008517;28;20029;-65
2023/05/15 00:04:57;;;;;;;5.40;2.83;;;;;;;;;;5008699;28;20024;-67
2023/05/15 00:07:22;;;;;;;6.35;2.85;;;;;;;;;;5009496;28;20116;-68
2023/05/15 00:09:47;;;;;;;5.72;3.22;;;;;;;;;;5006659;28;20026;-67
2023/05/15 00:12:13;;;;;;;5.78;3.00;;;;;;;;;;5007510;28;20083;-66
2023/05/15 00:14:38;;;;;;;5.70;2.93;;;;;;;;;;5003352;28;20065;-67
2023/05/15 00:17:03;;;;;;;7.87;3.37;;;;;;;;;;5008330;28;20467;-67
2023/05/15 00:19:28;;;;;;;6.60;3.10;;;;;;;;;;5008268;28;20025;-67
2023/05/15 00:21:54;;;;;;;5.72;3.00;;;;;;;;;;5009697;28;20025;-68
2023/05/15 00:24:20;;;;;;;6.55;3.00;;;;;;;;;;5006396;28;20035;-67
2023/05/15 00:26:45;;;;;;;5.90;3.15;;;;;;;;;;5009759;28;20017;-67
2023/05/15 00:29:10;;;;;;;6.13;3.15;;;;;;;;;;5008558;28;20014;-67
2023/05/15 00:31:35;;;;;;;5.97;2.70;;;;;;;;;;5008520;28;20030;-67
2023/05/15 00:34:00;;;;;;;6.10;3.20;;;;;;;;;;5005084;28;20124;-66
2023/05/15 00:36:26;;;;;;;7.10;3.40;;;;;;;;;;4998774;28;20029;-67
2023/05/15 00:38:51;;;;;;;5.30;2.90;;;;;;;;;;5012030;28;20021;-66
2023/05/15 00:41:16;;;;;;;5.50;2.90;;;;;;;;;;5011278;28;20026;-67
2023/05/15 00:43:42;;;;;;;5.85;3.25;;;;;;;;;;5010123;28;20022;-67
2023/05/15 00:46:08;;;;;;;5.60;2.80;;;;;;;;;;5011625;28;20026;-67
2023/05/15 00:48:33;;;;;;;6.20;3.08;;;;;;;;;;5001540;28;20030;-67
2023/05/15 00:50:59;;;;;;;6.78;2.92;;;;;;;;;;5008578;28;20041;-67
2023/05/15 00:53:25;;;;;;;6.00;3.27;;;;;;;;;;5012409;28;20041;-67
2023/05/15 00:55:50;;;;;;;5.85;3.33;;;;;;;;;;5012712;28;21014;-68
2023/05/15 00:58:17;;;;;;;5.43;2.80;;;;;;;;;;5010646;28;20022;-68
2023/05/15 01:00:42;;;;;;;6.85;3.28;;;;;;;;;;5011068;28;20992;-67
2023/05/15 01:03:07;;;;;;;6.10;3.42;;;;;;;;;;5009723;28;20016;-67
2023/05/15 01:05:32;;;;;;;6.57;3.30;;;;;;;;;;5009642;28;20386;-68
2023/05/15 01:08:06;;;;;;;6.13;3.30;;;;;;;;;;5010398;28;20026;-67
2023/05/15 01:10:33;;;;;;;5.32;3.13;;;;;;;;;;5010580;28;20030;-68
2023/05/15 01:12:58;;;;;;;8.82;3.38;;;;;;;;;;5007099;28;20022;-67
2023/05/15 01:15:23;;;;;;;6.20;3.10;;;;;;;;;;5008115;28;20053;-66
2023/05/15 01:17:49;;;;;;;5.77;3.20;;;;;;;;;;5012134;28;20393;-67
2023/05/15 01:20:17;;;;;;;5.85;3.17;;;;;;;;;;5013188;28;20025;-67
2023/05/15 01:23:04;;;;;;;6.60;2.97;;;;;;;;;;5010095;28;20022;-67
2023/05/15 01:25:39;;;;;;;6.00;3.42;;;;;;;;;;5009548;28;20108;-68
2023/05/15 01:28:08;;;;;;;6.95;3.05;;;;;;;;;;5009903;28;20398;-66
2023/05/15 01:30:34;;;;;;;7.68;3.20;;;;;;;;;;5007884;28;20026;-68
2023/05/15 01:33:00;;;;;;;;;;;;;;;;;;5010313;28;20034;-67
2023/05/15 01:35:32;;;;;;;6.57;3.17;;;;;;;;;;5010714;28;19909;-67
2023/05/15 01:38:11;;;;;;;5.47;2.67;;;;;;;;;;5010966;28;20036;-64
2023/05/15 01:40:37;;;;;;;6.65;3.42;;;;;;;;;;5005955;28;20580;-65
2023/05/15 01:43:06;;;;;;;6.97;3.15;;;;;;;;;;5002773;28;20022;-65
2023/05/15 01:45:32;;;;;;;7.57;3.60;;;;;;;;;;5007130;28;20096;-66
2023/05/15 01:47:58;;;;;;;5.00;2.80;;;;;;;;;;5012716;28;20029;-64
2023/05/15 01:50:25;;;;;;;5.90;3.05;;;;;;;;;;5010812;28;20033;-65
2023/05/15 01:52:52;;;;;;;6.03;3.10;;;;;;;;;;5010389;28;20038;-66
2023/05/15 01:55:19;;;;;;;4.75;2.88;;;;;;;;;;5010484;28;20034;-66
2023/05/15 01:57:45;;;;;;;6.30;3.75;;;;;;;;;;5010549;28;20096;-66
2023/05/15 02:00:11;;;;;;;7.22;3.53;;;;;;;;;;5004892;28;20026;-65
2023/05/15 02:02:37;;;;;;;6.28;3.50;;;;;;;;;;5006283;28;20049;-65
2023/05/15 02:05:03;;;;;;;9.75;3.92;;;;;;;;;;5013019;28;20021;-66
2023/05/15 02:07:28;;;;;;;7.38;3.85;;;;;;;;;;5010022;28;20030;-67
2023/05/15 02:09:54;;;;;;;6.23;3.40;;;;;;;;;;5010715;28;20100;-67
2023/05/15 02:12:19;;;;;;;5.53;3.17;;;;;;;;;;5005591;28;20026;-67
2023/05/15 02:14:47;;;;;;;5.72;3.30;;;;;;;;;;5005559;28;20030;-66
2023/05/15 02:17:12;;;;;;;6.05;3.60;;;;;;;;;;5008042;28;20382;-66
2023/05/15 02:19:37;;;;;;;5.83;3.17;;;;;;;;;;5006372;28;20029;-66
2023/05/15 02:22:02;;;;;;;5.70;3.07;;;;;;;;;;5007405;28;20026;-65
2023/05/15 02:24:28;;;;;;;6.78;3.53;;;;;;;;;;5008498;28;20032;-64
2023/05/15 02:27:01;;;;;;;6.00;3.30;;;;;;;;;;5008972;28;20093;-66
2023/05/15 02:29:44;;;;;;;6.40;3.17;;;;;;;;;;5009345;28;20025;-65
2023/05/15 02:32:28;;;;;;;5.80;2.90;;;;;;;;;;5006453;28;20041;-66
2023/05/15 02:35:15;;;;;;;6.05;3.22;;;;;;;;;;5008139;28;20104;-65
2023/05/15 02:37:45;;;;;;;6.68;3.38;;;;;;;;;;5006244;28;20033;-65
2023/05/15 02:40:10;;;;;;;6.10;3.28;;;;;;;;;;5009758;28;20048;-66
2023/05/15 02:42:36;;;;;;;6.10;3.53;;;;;;;;;;5009307;28;20477;-66
2023/05/15 02:45:02;;;;;;;6.13;3.17;;;;;;;;;;5007801;28;20340;-66
2023/05/15 02:47:27;;;;;;;5.78;3.17;;;;;;;;;;5003447;28;20025;-65
2023/05/15 02:49:53;;;;;;;6.68;3.35;;;;;;;;;;5008644;28;20040;-66
2023/05/15 02:52:18;;;;;;;5.90;3.58;;;;;;;;;;5007138;28;20026;-66
2023/05/15 02:54:43;;;;;;;10.68;3.75;;;;;;;;;;5009620;28;20049;-65
2023/05/15 02:57:08;;;;;;;7.37;3.97;;;;;;;;;;5009055;28;20484;-66
2023/05/15 02:59:34;;;;;;;7.72;4.00;;;;;;;;;;5007339;28;20030;-66
2023/05/15 03:01:59;;;;;;;6.38;3.30;;;;;;;;;;5005640;28;20030;-66
2023/05/15 03:04:24;;;;;;;6.43;3.40;;;;;;;;;;5008723;28;20022;-65
2023/05/15 03:06:49;;;;;;;6.10;3.43;;;;;;;;;;5009129;28;20490;-66
2023/05/15 03:09:15;;;;;;;5.40;3.30;;;;;;;;;;5008715;28;20037;-65
2023/05/15 03:11:40;;;;;;;6.70;3.97;;;;;;;;;;5010531;28;20060;-66
2023/05/15 03:14:05;;;;;;;6.13;3.27;;;;;;;;;;5008271;28;20029;-66
2023/05/15 03:16:30;;;;;;;8.35;3.83;;;;;;;;;;5005309;28;20034;-66
2023/05/15 03:18:56;;;;;;;6.97;3.38;;;;;;;;;;5008771;28;20021;-65
2023/05/15 03:21:21;;;;;;;6.80;3.77;;;;;;;;;;5007244;28;20084;-67
2023/05/15 03:23:46;;;;;;;7.82;3.65;;;;;;;;;;5005145;28;20010;-66
2023/05/15 03:26:11;;;;;;;8.23;4.45;;;;;;;;;;5007795;28;20083;-67
2023/05/15 03:28:36;;;;;;;7.03;3.70;;;;;;;;;;5009245;28;20010;-67
2023/05/15 03:31:03;;;;;;;6.40;3.55;;;;;;;;;;5007693;28;20026;-65
2023/05/15 03:33:28;;;;;;;8.43;3.65;;;;;;;;;;5007019;28;20022;-66
2023/05/15 03:35:54;;;;;;;7.73;3.70;;;;;;;;;;5007560;28;20037;-66
2023/05/15 03:38:19;;;;;;;6.80;3.03;;;;;;;;;;5006568;28;20030;-67
2023/05/15 03:40:44;;;;;;;6.30;3.17;;;;;;;;;;5008142;28;20017;-67
2023/05/15 03:43:10;;;;;;;5.65;2.97;;;;;;;;;;5009915;28;20033;-66
2023/05/15 03:45:35;;;;;;;7.05;3.10;;;;;;;;;;5009273;28;20032;-67
2023/05/15 03:48:00;;;;;;;6.90;3.35;;;;;;;;;;5007979;28;20026;-66
2023/05/15 03:50:25;;;;;;;7.30;3.50;;;;;;;;;;5002519;28;20405;-67
2023/05/15 03:52:50;;;;;;;5.93;3.30;;;;;;;;;;5009688;28;20053;-67
2023/05/15 03:55:16;;;;;;;6.83;3.27;;;;;;;;;;5004050;28;20081;-67
2023/05/15 03:57:41;;;;;;;6.13;2.93;;;;;;;;;;5008645;28;20024;-68
2023/05/15 04:00:09;;;;;;;6.60;3.20;;;;;;;;;;5009183;28;20566;-64
2023/05/15 04:02:35;;;;;;;6.10;2.97;;;;;;;;;;5008055;28;20038;-66
2023/05/15 04:05:00;;;;;;;5.28;2.80;;;;;;;;;;5008012;28;20385;-67
2023/05/15 04:07:25;;;;;;;5.22;2.92;;;;;;;;;;5010913;28;20153;-67
2023/05/15 04:09:50;;;;;;;6.40;3.40;;;;;;;;;;5012586;28;20033;-66
2023/05/15 04:12:16;;;;;;;5.07;2.80;;;;;;;;;;5020232;28;20477;-67
2023/05/15 04:14:41;;;;;;;5.00;2.70;;;;;;;;;;5018358;28;20022;-67
2023/05/15 04:17:06;;;;;;;6.18;3.33;;;;;;;;;;5012608;28;20405;-67
2023/05/15 04:19:31;;;;;;;5.63;2.78;;;;;;;;;;5005851;28;20486;-67
2023/05/15 04:21:56;;;;;;;6.23;2.80;;;;;;;;;;5009549;28;20030;-67
2023/05/15 04:24:21;;;;;;;5.78;2.72;;;;;;;;;;5009877;28;20025;-66
2023/05/15 04:26:46;;;;;;;8.40;3.00;;;;;;;;;;5010348;28;20148;-67
2023/05/15 04:29:12;;;;;;;5.97;3.10;;;;;;;;;;5011679;28;20532;-67
2023/05/15 04:31:37;;;;;;;5.90;3.20;;;;;;;;;;5011911;28;20033;-65
2023/05/15 04:34:03;;;;;;;7.00;3.53;;;;;;;;;;5009873;28;20048;-67
2023/05/15 04:36:29;;;;;;;5.65;3.30;;;;;;;;;;5004561;28;20029;-67
2023/05/15 04:38:54;;;;;;;5.55;3.05;;;;;;;;;;5002161;28;20029;-67
2023/05/15 04:41:19;;;;;;;5.63;3.05;;;;;;;;;;5009550;28;20784;-65
2023/05/15 04:43:44;;;;;;;8.13;3.63;;;;;;;;;;5008811;28;20030;-67
2023/05/15 04:46:10;;;;;;;5.50;3.00;;;;;;;;;;5003099;28;20505;-66
2023/05/15 04:48:35;;;;;;;7.03;3.30;;;;;;;;;;5007715;28;20026;-64
2023/05/15 04:51:00;;;;;;;8.33;3.10;;;;;;;;;;5006161;28;20028;-66
2023/05/15 04:53:25;;;;;;;7.10;3.13;;;;;;;;;;5009978;28;20462;-66
2023/05/15 04:55:50;;;;;;;6.57;3.25;;;;;;;;;;5004588;28;20033;-67
2023/05/15 04:58:16;;;;;;;6.20;3.13;;;;;;;;;;5007758;28;20100;-64
2023/05/15 05:00:41;;;;;;;6.07;3.25;;;;;;;;;;5006585;28;20476;-65
2023/05/15 05:03:06;;;;;;;6.70;3.25;;;;;;;;;;5009631;28;20022;-66
2023/05/15 05:05:31;;;;;;;8.63;4.00;;;;;;;;;;5008928;28;20033;-68
2023/05/15 05:07:56;;;;;;;8.40;3.30;;;;;;;;;;5010217;28;20057;-67
2023/05/15 05:10:21;;;;;;;6.38;3.40;;;;;;;;;;5006492;28;20064;-67
2023/05/15 05:12:46;;;;;;;6.13;3.05;;;;;;;;;;5008842;28;20033;-66
2023/05/15 05:15:12;;;;;;;7.13;3.70;;;;;;;;;;5009417;28;20022;-67
2023/05/15 05:17:37;;;;;;;6.57;3.37;;;;;;;;;;5008252;28;20073;-67
2023/05/15 05:20:03;;;;;;;7.03;3.10;;;;;;;;;;5011504;28;20405;-65
2023/05/15 05:22:29;;;;;;;7.03;3.50;;;;;;;;;;5006468;28;20485;-67
2023/05/15 05:24:55;;;;;;;7.82;3.42;;;;;;;;;;5012334;28;20020;-65
2023/05/15 05:27:20;;;;;;;6.55;3.67;;;;;;;;;;5013115;28;20415;-67
2023/05/15 05:29:45;;;;;;;5.88;3.40;;;;;;;;;;5013369;28;20010;-67
2023/05/15 05:32:11;;;;;;;5.63;3.30;;;;;;;;;;5012321;28;20045;-65
2023/05/15 05:34:37;;;;;;;5.88;3.35;;;;;;;;;;5013052;28;20443;-65
2023/05/15 05:37:02;;;;;;;6.45;3.42;;;;;;;;;;5013326;28;20425;-67
2023/05/15 05:39:27;;;;;;;6.33;3.10;;;;;;;;;;5011815;28;20052;-67
2023/05/15 05:41:52;;;;;;;5.55;3.10;;;;;;;;;;5007419;28;21033;-60
2023/05/15 05:44:17;;;;;;;6.05;3.03;;;;;;;;;;5002877;28;20108;-60
2023/05/15 05:46:44;;;;;;;7.00;3.50;;;;;;;;;;5011159;28;20017;-59
2023/05/15 05:49:09;;;;;;;;;;;;;;;;;;5010911;28;20104;-59
2023/05/15 05:51:35;;;;;;;7.05;4.03;;;;;;;;;;5010060;28;20052;-60
2023/05/15 05:54:00;;;;;;;6.00;3.47;;;;;;;;;;5012446;28;20029;-59
2023/05/15 05:56:26;;;;;;;7.30;3.63;;;;;;;;;;5012773;28;20041;-60
2023/05/15 05:58:51;;;;;;;6.30;3.67;;;;;;;;;;5010514;28;20481;-60
2023/05/15 06:01:16;;;;;;;7.50;4.00;;;;;;;;;;5007635;28;20022;-61
2023/05/15 06:03:42;;;;;;;7.67;3.87;;;;;;;;;;5005511;28;20044;-60
2023/05/15 06:06:07;;;;;;;6.68;4.03;;;;;;;;;;5011560;28;20029;-61
2023/05/15 06:08:32;;;;;;;7.10;4.30;;;;;;;;;;5012167;28;20473;-61
2023/05/15 06:10:57;;;;;;;9.20;5.03;;;;;;;;;;5011020;28;20052;-60
2023/05/15 06:13:23;;;;;;;6.93;4.00;;;;;;;;;;5012521;28;20084;-60
2023/05/15 06:15:48;;;;;;;9.85;5.40;;;;;;;;;;5007474;28;20397;-61
2023/05/15 06:18:13;;;;;;;6.75;4.05;;;;;;;;;;5009215;28;20018;-60
2023/05/15 06:20:38;;;;;;;8.03;4.27;;;;;;;;;;5010749;28;20066;-60
2023/05/15 06:23:03;;;;;;;8.77;4.23;;;;;;;;;;5009725;28;20018;-59
2023/05/15 06:25:29;;;;;;;9.65;4.65;;;;;;;;;;5009835;28;20066;-60
2023/05/15 06:27:54;;;;;;;7.15;4.00;;;;;;;;;;5008992;28;20029;-60
2023/05/15 06:30:19;;;;;;;7.13;4.13;;;;;;;;;;5009224;28;20026;-60
2023/05/15 06:32:45;;;;;;;7.47;4.03;;;;;;;;;;5008713;28;20026;-61
2023/05/15 06:35:10;;;;;;;8.20;4.07;;;;;;;;;;5009586;28;20050;-59
2023/05/15 06:37:35;;;;;;;8.20;4.30;;;;;;;;;;5014199;28;20034;-60
2023/05/15 06:40:00;;;;;;;7.40;4.40;;;;;;;;;;5008787;28;20087;-60
2023/05/15 06:42:26;;;;;;;9.57;4.80;;;;;;;;;;5009611;28;20036;-65
2023/05/15 06:44:51;;;;;;;6.55;3.90;;;;;;;;;;5009304;28;20033;-67
2023/05/15 06:47:16;;;;;;;7.67;4.67;;;;;;;;;;5009656;28;20029;-66
2023/05/15 06:49:41;;;;;;;7.00;4.30;;;;;;;;;;5011439;28;20524;-67
2023/05/15 06:52:06;;;;;;;6.95;4.07;;;;;;;;;;5009975;28;20010;-66
2023/05/15 06:54:31;;;;;;;8.20;4.83;;;;;;;;;;5009617;28;20030;-66
2023/05/15 06:56:57;;;;;;;7.33;4.40;;;;;;;;;;5011419;28;20018;-66
2023/05/15 06:59:22;;;;;;;7.93;4.38;;;;;;;;;;5011844;28;20033;-67
2023/05/15 07:01:47;;;;;;;8.77;4.13;;;;;;;;;;5011097;28;20030;-66
2023/05/15 07:04:12;;;;;;;6.63;4.22;;;;;;;;;;5011407;28;20049;-65
2023/05/15 07:06:37;;;;;;;7.80;4.87;;;;;;;;;;5009332;28;20501;-66
2023/05/15 07:09:03;;;;;;;7.20;4.27;;;;;;;;;;5008239;28;20025;-67
2023/05/15 07:11:28;;;;;;;7.80;4.45;;;;;;;;;;5010821;28;20435;-65
2023/05/15 07:13:53;;;;;;;6.80;3.90;;;;;;;;;;5011417;28;20021;-67
2023/05/15 07:16:19;;;;;;;7.13;3.80;;;;;;;;;;5011503;28;20022;-67
2023/05/15 07:18:44;;;;;;;6.60;3.50;;;;;;;;;;5011224;28;20026;-66
2023/05/15 07:21:09;;;;;;;7.13;4.17;;;;;;;;;;5009050;28;20093;-67
2023/05/15 07:23:34;;;;;;;7.97;4.05;;;;;;;;;;5011356;28;20474;-66
2023/05/15 07:25:59;;;;;;;8.70;4.20;;;;;;;;;;5011430;28;20028;-66
2023/05/15 07:28:24;;;;;;;6.80;4.05;;;;;;;;;;5011049;28;20083;-67
2023/05/15 07:30:50;;;;;;;8.40;4.07;;;;;;;;;;5008262;28;20473;-66
2023/05/15 07:33:15;;;;;;;9.50;4.25;;;;;;;;;;5010737;28;20053;-66
2023/05/15 07:35:40;;;;;;;7.85;4.13;;;;;;;;;;5011402;28;20053;-66
2023/05/15 07:38:05;;;;;;;7.63;4.20;;;;;;;;;;5011256;28;20026;-66
2023/05/15 07:40:31;;;;;;;7.30;4.30;;;;;;;;;;5010440;28;20032;-64
2023/05/15 07:42:57;;;;;;;10.93;4.40;;;;;;;;;;5010977;28;20096;-66
2023/05/15 07:45:22;;;;;;;7.97;4.07;;;;;;;;;;5010146;28;20018;-66
2023/05/15 07:47:48;;;;;;;9.40;4.20;;;;;;;;;;5010688;28;20049;-66
2023/05/15 07:50:13;;;;;;;9.20;4.35;;;;;;;;;;5011284;28;20032;-66
2023/05/15 07:52:38;;;;;;;7.40;3.97;;;;;;;;;;5009281;28;20470;-66
2023/05/15 07:55:03;;;;;;;8.02;4.72;;;;;;;;;;5009569;28;21047;-65
2023/05/15 07:57:28;;;;;;;9.20;5.10;;;;;;;;;;5010402;28;20430;-66
2023/05/15 07:59:54;;;;;;;7.83;4.23;;;;;;;;;;5010628;28;20018;-68
2023/05/15 08:02:19;;;;;;;8.43;4.75;;;;;;;;;;5010150;28;20021;-66
2023/05/15 08:04:45;;;;;;;7.70;4.72;;;;;;;;;;5009897;28;20061;-67
2023/05/15 08:07:10;;;;;;;11.63;4.77;;;;;;;;;;5010055;28;20409;-68
2023/05/15 08:09:35;;;;;;;7.30;4.63;;;;;;;;;;5008180;28;20018;-68
2023/05/15 08:12:16;;;;;;;11.82;4.45;;;;;;;;;;5008582;28;20033;-66
2023/05/15 08:14:42;;;;;;;9.98;4.15;;;;;;;;;;5003246;28;20029;-64
2023/05/15 08:17:07;;;;;;;7.37;4.23;;;;;;;;;;5010594;28;20030;-66
2023/05/15 08:19:32;;;;;;;10.10;4.50;;;;;;;;;;5010566;28;20493;-67
2023/05/15 08:21:57;;;;;;;6.10;3.90;;;;;;;;;;5010275;28;20026;-67
2023/05/15 08:24:22;;;;;;;8.77;4.68;;;;;;;;;;5009520;28;20029;-68
2023/05/15 08:26:47;;;;;;;8.77;4.70;;;;;;;;;;5013141;28;20046;-68
2023/05/15 08:29:12;;;;;;;9.88;4.28;;;;;;;;;;5012262;28;20437;-66
2023/05/15 08:31:38;;;;;;;10.85;4.78;;;;;;;;;;5013346;28;20098;-67
2023/05/15 08:34:03;;;;;;;10.23;4.87;;;;;;;;;;5011106;28;20026;-67
2023/05/15 08:36:28;;;;;;;11.50;5.43;;;;;;;;;;5011094;28;20437;-67
2023/05/15 08:38:53;;;;;;;9.07;5.05;;;;;;;;;;5010507;28;20385;-67
2023/05/15 08:41:30;;;;;;;9.88;4.68;;;;;;;;;;5010117;28;20033;-67
2023/05/15 08:43:56;;;;;;;8.68;5.00;;;;;;;;;;5010294;28;20477;-67
2023/05/15 08:46:21;;;;;;;;;;;;;;;;;;5011349;28;20076;-67
2023/05/15 08:48:46;;;;;;;8.70;4.32;;;;;;;;;;5010791;28;19909;-67
2023/05/15 08:51:12;;;;;;;8.77;4.83;;;;;;;;;;5010226;28;20037;-67
2023/05/15 08:53:37;;;;;;;8.95;5.18;;;;;;;;;;5010443;28;20111;-67
2023/05/15 08:56:03;;;;;;;9.23;4.77;;;;;;;;;;5009023;28;20397;-66
2023/05/15 08:58:28;;;;;;;7.07;4.63;;;;;;;;;;5012160;28;20436;-64
2023/05/15 09:00:54;;;;;;;8.95;4.60;;;;;;;;;;5013057;28;20022;-67
2023/05/15 09:03:21;;;;;;;7.80;4.32;;;;;;;;;;5014039;28;20049;-67
2023/05/15 09:05:46;;;;;;;9.00;4.80;;;;;;;;;;5014066;28;20033;-67
2023/05/15 09:08:13;;;;;;;7.80;4.80;;;;;;;;;;5010084;28;20021;-67
2023/05/15 09:10:38;;;;;;;;;;;;;;;;;;5013728;28;20025;-67
2023/05/15 09:13:04;;;;;;;7.72;4.70;;;;;;;;;;5013748;28;19985;-64
2023/05/15 09:15:29;;;;;;;8.57;4.57;;;;;;;;;;5014274;28;20029;-67
2023/05/15 09:17:55;;;;;;;7.47;4.67;;;;;;;;;;5013524;28;20022;-64
2023/05/15 09:20:26;;;;;;;8.77;5.20;;;;;;;;;;5012187;28;20497;-67
2023/05/15 09:22:52;;;;;;;8.88;5.22;;;;;;;;;;5011177;28;20425;-67
2023/05/15 09:25:37;;;;;;;7.70;4.82;;;;;;;;;;5013273;28;20512;-67
2023/05/15 09:28:03;;;;;;;8.30;5.15;;;;;;;;;;5012774;28;20038;-67
2023/05/15 09:30:29;;;;;;;8.85;4.70;;;;;;;;;;5012622;28;20061;-67
2023/05/15 09:32:55;;;;;;;9.82;4.60;;;;;;;;;;5012955;28;20030;-66
2023/05/15 09:35:30;;;;;;;9.38;4.93;;;;;;;;;;5013080;28;20018;-67
2023/05/15 09:37:59;;;;;;;8.60;5.20;;;;;;;;;;5011640;28;20037;-67
2023/05/15 09:40:26;;;;;;;8.43;5.07;;;;;;;;;;5011303;28;20045;-67
2023/05/15 09:42:52;;;;;;;8.73;5.03;;;;;;;;;;5012681;28;20492;-67
2023/05/15 09:45:17;;;;;;;8.57;5.38;;;;;;;;;;5013192;28;20021;-66
2023/05/15 09:47:42;;;;;;;8.50;5.63;;;;;;;;;;5013148;28;20531;-67
2023/05/15 09:50:08;;;;;;;8.60;5.97;;;;;;;;;;5011492;28;20025;-67
2023/05/15 09:52:33;;;;;;;9.25;4.85;;;;;;;;;;5011990;28;20017;-65
2023/05/15 09:54:58;;;;;;;8.40;5.27;;;;;;;;;;5011456;28;20029;-66
2023/05/15 09:57:23;;;;;;;8.27;5.38;;;;;;;;;;5012858;28;20076;-66
2023/05/15 09:59:49;;;;;;;9.13;5.80;;;;;;;;;;5012692;28;20022;-66
2023/05/15 10:02:26;;;;;;;8.23;5.00;;;;;;;;;;5011893;28;20056;-66
2023/05/15 10:04:57;;;;;;;8.93;5.60;;;;;;;;;;5012392;28;20440;-67
2023/05/15 10:07:26;;;;;;;10.35;5.63;;;;;;;;;;5012550;28;20025;-66
2023/05/15 10:09:51;;;;;;;10.40;5.47;;;;;;;;;;5010554;28;20017;-66
2023/05/15 10:12:17;;;;;;;7.70;4.95;;;;;;;;;;5010977;28;20049;-66
2023/05/15 10:14:42;;;;;;;8.93;5.07;;;;;;;;;;5011877;28;20033;-67
2023/05/15 10:17:08;;;;;;;9.35;4.78;;;;;;;;;;5012479;28;20052;-67
2023/05/15 10:19:33;;;;;;;8.65;4.75;;;;;;;;;;5010768;28;20437;-67
2023/05/15 10:21:59;;;;;;;9.40;5.47;;;;;;;;;;5011674;28;20515;-66
2023/05/15 10:24:28;;;;;;;7.70;4.65;;;;;;;;;;5010478;28;20080;-67
2023/05/15 10:26:54;;;;;;;9.70;4.25;;;;;;;;;;5006339;28;20529;-66
2023/05/15 10:29:20;;;;;;;7.20;4.65;;;;;;;;;;5012292;28;20334;-66
2023/05/15 10:31:47;;;;;;;7.05;4.70;;;;;;;;;;5012165;28;20436;-66
2023/05/15 10:34:12;;;;;;;9.43;4.93;;;;;;;;;;5010764;28;20513;-67
2023/05/15 10:36:38;;;;;;;10.17;5.50;;;;;;;;;;5011936;28;20065;-66
2023/05/15 10:39:04;;;;;;;8.57;4.80;;;;;;;;;;5012406;28;20080;-67
2023/05/15 10:41:31;;;;;;;7.07;4.55;;;;;;;;;;5011560;28;20436;-66
2023/05/15 10:43:57;;;;;;;8.10;5.05;;;;;;;;;;5010467;28;20485;-66
2023/05/15 10:46:22;;;;;;;8.45;4.82;;;;;;;;;;5011644;28;20028;-67
2023/05/15 10:48:48;;;;;;;8.50;5.47;;;;;;;;;;5011545;28;20117;-67
2023/05/15 10:51:14;;;;;;;7.40;4.57;;;;;;;;;;5010861;28;20052;-67
2023/05/15 10:53:39;;;;;;;9.55;4.75;;;;;;;;;;5011887;28;20416;-67
2023/05/15 10:56:05;;;;;;;9.50;4.53;;;;;;;;;;5009537;28;20029;-66
2023/05/15 10:58:30;;;;;;;7.65;4.38;;;;;;;;;;5010396;28;20029;-67
2023/05/15 11:00:55;;;;;;;9.47;4.67;;;;;;;;;;5010913;28;20093;-66
2023/05/15 11:03:42;;;;;;;9.95;4.82;;;;;;;;;;5011744;28;20030;-65
2023/05/15 11:06:11;;;;;;;9.40;4.55;;;;;;;;;;5011544;28;20101;-67
2023/05/15 11:08:37;;;;;;;9.50;4.38;;;;;;;;;;5010970;28;20034;-67
2023/05/15 11:11:02;;;;;;;8.98;4.50;;;;;;;;;;5010905;28;20465;-67
2023/05/15 11:13:47;;;;;;;7.77;4.50;;;;;;;;;;5011300;28;20022;-66
2023/05/15 11:16:13;;;;;;;7.40;4.22;;;;;;;;;;5015397;28;20022;-66
2023/05/15 11:18:38;;;;;;;6.47;4.07;;;;;;;;;;5013982;28;20029;-67
2023/05/15 11:21:03;;;;;;;6.47;4.00;;;;;;;;;;5011554;28;20057;-66
2023/05/15 11:23:36;;;;;;;7.65;4.25;;;;;;;;;;5012314;28;20026;-66
2023/05/15 11:26:02;;;;;;;9.15;4.60;;;;;;;;;;5010531;28;20018;-66
2023/05/15 11:28:27;;;;;;;;;;;;;;;;;;5011700;28;20018;-65
2023/05/15 11:30:57;;;;;;;7.25;4.22;;;;;;;;;;5005669;28;19909;-66
2023/05/15 11:33:23;;;;;;;7.97;4.45;;;;;;;;;;5004995;28;20034;-66
2023/05/15 11:35:56;;;;;;;6.57;4.20;;;;;;;;;;5011070;28;20067;-66
2023/05/15 11:38:23;;;;;;;7.97;4.57;;;;;;;;;;5011164;28;20543;-66
2023/05/15 11:40:51;;;;;;;7.28;4.45;;;;;;;;;;5008492;28;20041;-66
2023/05/15 11:43:16;;;;;;;7.80;4.25;;;;;;;;;;5010485;28;20010;-66
2023/05/15 11:45:42;;;;;;;6.63;4.20;;;;;;;;;;4991570;28;20497;-66
2023/05/15 11:48:11;;;;;;;8.50;4.15;;;;;;;;;;4991332;28;20484;-66
2023/05/15 11:50:36;;;;;;;7.75;4.50;;;;;;;;;;4990575;28;20030;-68
2023/05/15 11:53:03;;;;;;;8.63;4.93;;;;;;;;;;4991287;28;20169;-66
2023/05/15 11:55:29;;;;;;;7.25;4.35;;;;;;;;;;4991217;28;20022;-67
2023/05/15 11:57:54;;;;;;;7.95;4.63;;;;;;;;;;5000694;28;20105;-66
2023/05/15 12:00:20;;;;;;;8.00;4.50;;;;;;;;;;5010390;28;20097;-67
2023/05/15 12:02:45;;;;;;;7.68;4.80;;;;;;;;;;5010396;28;20025;-66
2023/05/15 12:05:10;;;;;;;8.63;4.43;;;;;;;;;;5010756;28;20136;-67
2023/05/15 12:07:36;;;;;;;13.97;5.97;;;;;;;;;;5010452;28;20033;-65
2023/05/15 12:10:02;;;;;;;10.70;6.18;;;;;;;;;;5010481;28;20014;-67
2023/05/15 12:12:27;;;;;;;10.57;6.20;;;;;;;;;;5010327;28;20025;-67
2023/05/15 12:14:56;;;;;;;9.45;6.43;;;;;;;;;;5009327;28;20101;-67
2023/05/15 12:17:22;;;;;;;11.15;7.07;;;;;;;;;;5009746;28;20101;-67
2023/05/15 12:19:47;;;;;;;16.70;7.68;;;;;;;;;;5010739;28;20042;-67
2023/05/15 12:22:12;;;;;;;9.63;7.00;;;;;;;;;;5010139;28;20018;-66
2023/05/15 12:24:38;;;;;;;12.20;7.30;;;;;;;;;;5010835;28;20018;-68
2023/05/15 12:27:03;;;;;;;10.65;7.30;;;;;;;;;;5010488;28;20022;-68
2023/05/15 12:29:29;;;;;;;11.90;8.27;;;;;;;;;;5010242;28;20079;-67
2023/05/15 12:31:54;;;;;;;10.43;7.43;;;;;;;;;;5009977;28;20405;-67
2023/05/15 12:34:20;;;;;;;10.43;7.10;;;;;;;;;;5012194;28;20037;-66
2023/05/15 12:36:45;;;;;;;10.38;7.65;;;;;;;;;;5009692;28;20071;-66
2023/05/15 12:39:10;;;;;;;11.20;7.82;;;;;;;;;;5009581;28;20482;-65
2023/05/15 12:41:37;;;;;;;10.45;7.72;;;;;;;;;;5013472;28;20042;-66
2023/05/15 12:44:03;;;;;;;11.23;7.90;;;;;;;;;;5014392;28;20028;-66
2023/05/15 12:46:28;;;;;;;12.85;8.85;;;;;;;;;;5014346;28;20100;-66
2023/05/15 12:48:57;;;;;;;12.50;8.10;;;;;;;;;;5012850;28;20030;-66
2023/05/15 12:51:22;;;;;;;13.40;8.55;;;;;;;;;;5013202;28;20022;-65
2023/05/15 12:53:47;;;;;;;12.67;10.23;;;;;;;;;;5014103;28;20092;-66
2023/05/15 12:56:16;;;;;;;14.38;9.93;;;;;;;;;;5013759;28;20026;-64
2023/05/15 12:58:41;;;;;;;11.55;8.35;;;;;;;;;;5013850;28;20022;-66
2023/05/15 13:01:06;;;;;;;10.23;7.65;;;;;;;;;;5013950;28;20469;-66
2023/05/15 13:03:31;;;;;;;12.00;8.70;;;;;;;;;;5013724;28;20021;-66
2023/05/15 13:05:56;;;;;;;14.13;8.57;;;;;;;;;;5011869;28;20485;-66
2023/05/15 13:08:21;;;;;;;10.37;7.93;;;;;;;;;;5012802;28;20030;-66
2023/05/15 13:10:54;;;;;;;11.23;8.87;;;;;;;;;;5012834;28;20363;-64
2023/05/15 13:13:20;;;;;;;11.45;8.40;;;;;;;;;;5014019;28;20022;-66
2023/05/15 13:15:47;;;;;;;10.67;7.90;;;;;;;;;;5013822;28;20022;-65
2023/05/15 13:18:13;;;;;;;11.00;7.70;;;;;;;;;;5013525;28;20065;-65
2023/05/15 13:20:38;;;;;;;;;;;;;;;;;;5012971;28;20033;-67
2023/05/15 13:23:03;;;;;;;10.32;8.23;;;;;;;;;;5012085;28;19909;-64
2023/05/15 13:25:29;;;;;;;11.38;7.75;;;;;;;;;;5013457;28;20032;-66
2023/05/15 13:27:56;;;;;;;10.02;7.35;;;;;;;;;;5012444;28;20551;-64
2023/05/15 13:30:21;;;;;;;10.80;7.25;;;;;;;;;;5009975;28;20025;-66
2023/05/15 13:32:46;;;;;;;9.20;6.25;;;;;;;;;;5012214;28;20065;-65
2023/05/15 13:35:11;;;;;;;8.67;4.93;;;;;;;;;;5013081;28;20026;-66
2023/05/15 13:37:37;;;;;;;10.10;5.00;;;;;;;;;;5008186;28;20030;-65
2023/05/15 13:40:05;;;;;;;8.17;5.40;;;;;;;;;;5012746;28;20077;-66
2023/05/15 13:42:30;;;;;;;9.02;5.28;;;;;;;;;;5010118;28;20057;-66
2023/05/15 13:44:55;;;;;;;8.05;5.00;;;;;;;;;;5012582;28;20098;-65
2023/05/15 13:47:20;;;;;;;8.85;5.30;;;;;;;;;;5012822;28;20034;-65
2023/05/15 13:49:46;;;;;;;8.55;5.18;;;;;;;;;;5012674;28;20026;-66
2023/05/15 13:52:11;;;;;;;8.98;5.38;;;;;;;;;;5012263;28;20072;-64
2023/05/15 13:54:36;;;;;;;8.70;5.50;;;;;;;;;;5013108;28;20021;-66
2023/05/15 13:57:01;;;;;;;8.37;5.53;;;;;;;;;;5013067;28;20028;-66
2023/05/15 13:59:26;;;;;;;8.13;5.07;;;;;;;;;;5012497;28;20045;-65
2023/05/15 14:01:51;;;;;;;8.97;5.90;;;;;;;;;;5011815;28;20046;-63
2023/05/15 14:04:17;;;;;;;8.27;5.57;;;;;;;;;;5009417;28;20390;-65
2023/05/15 14:06:42;;;;;;;10.10;5.88;;;;;;;;;;4994524;28;20470;-65
2023/05/15 14:09:07;;;;;;;9.60;5.73;;;;;;;;;;5014621;28;20113;-65
2023/05/15 14:11:33;;;;;;;8.33;5.67;;;;;;;;;;5016420;28;20041;-65
2023/05/15 14:13:58;;;;;;;9.95;6.35;;;;;;;;;;5006721;28;20386;-65
2023/05/15 14:16:23;;;;;;;9.03;6.90;;;;;;;;;;5012377;28;20501;-65
2023/05/15 14:18:48;;;;;;;9.75;6.88;;;;;;;;;;5007165;28;20087;-66
2023/05/15 14:21:14;;;;;;;9.88;6.85;;;;;;;;;;5011425;28;20018;-66
2023/05/15 14:23:39;;;;;;;9.67;7.03;;;;;;;;;;5011974;28;20434;-66
2023/05/15 14:26:04;;;;;;;9.32;6.55;;;;;;;;;;5012256;28;20881;-65
2023/05/15 14:28:29;;;;;;;9.37;6.37;;;;;;;;;;5009564;28;20398;-66
2023/05/15 14:30:54;;;;;;;9.13;6.43;;;;;;;;;;5002675;28;20109;-64
2023/05/15 14:33:19;;;;;;;8.95;5.97;;;;;;;;;;5002913;28;20041;-64
2023/05/15 14:35:44;;;;;;;8.73;5.87;;;;;;;;;;5007942;28;20026;-65